Time;durP1;ratioP1;P1;durP2;ratioP2;P2;SDS_P1;SDS_P2;PMS_P1;PMS_P2;Temp;Humidity;BMP_temperature;BMP_pressure;BME280_temperature;BME280_humidity;BME280_pressure;Samples;Min_cycle;Max_cycle;Signal;HPM_P1;HPM_P2
2024/01/19 00:00:00;;;;;;;3.78;3.47;;;13.30;60.60;;;;;;5023513;28;20064;-79
2024/01/19 00:02:26;;;;;;;3.80;3.60;;;13.30;60.20;;;;;;5024580;28;20127;-79
2024/01/19 00:04:51;;;;;;;3.67;3.47;;;13.30;60.20;;;;;;5042275;28;20041;-79
2024/01/19 00:07:17;;;;;;;3.92;3.58;;;13.30;60.20;;;;;;5022759;28;20533;-79
2024/01/19 00:09:42;;;;;;;3.50;3.30;;;13.30;60.20;;;;;;5020000;28;20395;-79
2024/01/19 00:12:08;;;;;;;3.67;3.45;;;13.30;60.20;;;;;;5005834;28;20104;-79
2024/01/19 00:14:33;;;;;;;3.50;3.30;;;13.30;60.20;;;;;;5010046;28;20049;-79
2024/01/19 00:16:59;;;;;;;3.55;3.35;;;13.30;60.10;;;;;;5009765;28;20450;-79
2024/01/19 00:19:25;;;;;;;3.75;3.55;;;13.30;60.20;;;;;;5024379;28;20037;-79
2024/01/19 00:21:50;;;;;;;4.05;3.75;;;13.20;60.00;;;;;;5023486;28;20495;-79
2024/01/19 00:24:16;;;;;;;4.53;4.07;;;13.30;60.30;;;;;;5047129;28;20092;-79
2024/01/19 00:26:44;;;;;;;3.85;3.55;;;13.30;60.20;;;;;;5016588;28;20049;-79
2024/01/19 00:29:10;;;;;;;3.80;3.60;;;13.20;60.10;;;;;;5057483;28;20062;-79
2024/01/19 00:31:35;;;;;;;3.60;3.40;;;13.20;60.10;;;;;;5008822;28;20061;-79
2024/01/19 00:34:01;;;;;;;3.25;3.05;;;13.20;59.90;;;;;;5000619;28;20513;-79
2024/01/19 00:36:26;;;;;;;4.15;3.85;;;13.20;60.10;;;;;;5001861;28;20385;-79
2024/01/19 00:38:53;;;;;;;4.00;3.70;;;13.20;60.10;;;;;;5014310;28;20042;-79
2024/01/19 00:41:18;;;;;;;4.15;3.63;;;13.20;60.10;;;;;;5054758;28;20049;-79
2024/01/19 00:43:44;;;;;;;4.00;3.65;;;13.20;60.10;;;;;;5006550;28;20045;-79
2024/01/19 00:46:10;;;;;;;4.38;4.07;;;13.20;60.00;;;;;;5022435;28;20052;-79
2024/01/19 00:48:36;;;;;;;3.83;3.50;;;13.20;60.10;;;;;;4995452;28;20036;-79
2024/01/19 00:51:01;;;;;;;3.90;3.60;;;13.20;60.10;;;;;;5005353;28;20121;-79
2024/01/19 00:53:27;;;;;;;3.60;3.40;;;13.20;60.10;;;;;;5005073;28;20120;-79
2024/01/19 00:55:52;;;;;;;3.90;3.60;;;13.20;60.10;;;;;;5023602;28;20041;-79
2024/01/19 00:58:18;;;;;;;3.85;3.63;;;13.20;60.10;;;;;;4996348;28;20057;-79
2024/01/19 01:00:43;;;;;;;3.80;3.50;;;13.20;60.00;;;;;;5005539;28;20045;-79
2024/01/19 01:03:09;;;;;;;3.70;3.40;;;13.20;60.00;;;;;;5008491;28;20053;-79
2024/01/19 01:05:34;;;;;;;3.88;3.63;;;13.20;60.10;;;;;;5004789;28;20033;-79
2024/01/19 01:08:00;;;;;;;3.90;3.60;;;13.20;60.20;;;;;;5006495;28;20042;-79
2024/01/19 01:10:25;;;;;;;4.05;3.75;;;13.20;60.10;;;;;;4989928;28;20496;-79
2024/01/19 01:12:51;;;;;;;4.55;4.22;;;13.20;60.00;;;;;;5013804;28;20057;-79
2024/01/19 01:15:17;;;;;;;4.20;3.90;;;13.20;59.90;;;;;;5018141;28;20070;-79
2024/01/19 01:17:43;;;;;;;4.00;3.70;;;13.20;60.70;;;;;;5018913;28;20454;-79
2024/01/19 01:20:10;;;;;;;3.90;3.60;;;13.10;59.80;;;;;;5009129;28;20037;-79
2024/01/19 01:22:36;;;;;;;3.95;3.58;;;13.20;60.60;;;;;;4988691;28;20496;-79
2024/01/19 01:25:02;;;;;;;3.65;3.45;;;13.20;60.10;;;;;;5019600;28;20040;-79
2024/01/19 01:27:27;;;;;;;3.67;3.47;;;13.10;59.80;;;;;;5002943;28;20050;-79
2024/01/19 01:29:53;;;;;;;3.83;3.63;;;13.10;60.00;;;;;;5023239;28;20045;-79
2024/01/19 01:32:18;;;;;;;4.10;3.80;;;13.20;59.90;;;;;;5020810;28;20057;-79
2024/01/19 01:34:44;;;;;;;4.05;3.78;;;13.20;60.00;;;;;;5023855;28;20029;-79
2024/01/19 01:37:09;;;;;;;3.92;3.63;;;13.10;60.00;;;;;;5018922;28;20053;-79
2024/01/19 01:39:35;;;;;;;3.85;3.55;;;13.10;59.90;;;;;;4990964;28;20053;-79
2024/01/19 01:42:00;;;;;;;3.83;3.63;;;13.10;59.90;;;;;;5019885;28;20502;-79
2024/01/19 01:44:26;;;;;;;3.63;3.42;;;13.10;60.10;;;;;;5004104;28;20037;-79
2024/01/19 01:46:52;;;;;;;4.07;3.78;;;13.10;60.10;;;;;;5006046;28;20168;-79
2024/01/19 01:49:18;;;;;;;3.97;3.67;;;13.10;60.00;;;;;;4989186;28;20046;-79
2024/01/19 01:51:44;;;;;;;4.10;3.80;;;13.10;59.80;;;;;;4985334;28;20042;-79
2024/01/19 01:54:09;;;;;;;4.50;3.90;;;13.10;59.90;;;;;;5014190;28;20120;-79
2024/01/19 01:56:35;;;;;;;4.10;3.70;;;13.10;60.00;;;;;;5021358;28;20041;-79
2024/01/19 01:59:01;;;;;;;4.30;4.00;;;13.10;59.90;;;;;;5022661;28;20045;-79
2024/01/19 02:01:26;;;;;;;4.18;3.88;;;13.10;60.00;;;;;;5001510;28;20037;-79
2024/01/19 02:03:54;;;;;;;4.10;3.90;;;13.10;60.30;;;;;;4990749;28;20042;-79
2024/01/19 02:06:19;;;;;;;3.92;3.72;;;13.10;59.90;;;;;;4971910;28;20493;-79
2024/01/19 02:08:45;;;;;;;3.70;3.50;;;13.10;60.00;;;;;;5008959;28;20022;-79
2024/01/19 02:11:10;;;;;;;3.70;3.50;;;13.10;59.80;;;;;;5031361;28;20042;-79
2024/01/19 02:13:36;;;;;;;4.28;3.97;;;13.00;59.80;;;;;;5037347;28;20046;-79
2024/01/19 02:16:03;;;;;;;4.45;4.05;;;13.10;60.00;;;;;;5021935;28;20042;-79
2024/01/19 02:18:28;;;;;;;3.85;3.55;;;13.10;60.00;;;;;;4991205;28;20049;-79
2024/01/19 02:20:54;;;;;;;4.10;3.80;;;13.00;60.00;;;;;;5024051;28;20120;-79
2024/01/19 02:23:20;;;;;;;4.28;3.97;;;13.00;59.80;;;;;;4992639;28;20408;-79
2024/01/19 02:25:45;;;;;;;4.55;4.15;;;13.10;59.90;;;;;;5027706;28;20095;-79
2024/01/19 02:28:11;;;;;;;4.22;3.92;;;13.10;60.00;;;;;;4989152;28;20412;-79
2024/01/19 02:30:37;;;;;;;4.10;3.88;;;13.00;59.90;;;;;;5010884;28;20038;-79
2024/01/19 02:33:03;;;;;;;4.03;3.80;;;13.00;59.80;;;;;;5007309;28;20538;-79
2024/01/19 02:35:28;;;;;;;3.53;3.33;;;13.00;60.00;;;;;;5006254;28;20042;-79
2024/01/19 02:37:54;;;;;;;4.57;4.28;;;13.00;59.90;;;;;;5011039;28;20589;-79
2024/01/19 02:40:19;;;;;;;3.85;3.60;;;13.00;59.90;;;;;;5000805;28;20511;-79
2024/01/19 02:42:45;;;;;;;3.70;3.50;;;13.00;59.90;;;;;;4992783;28;20060;-79
2024/01/19 02:45:11;;;;;;;4.28;3.95;;;13.00;60.00;;;;;;5013338;28;20060;-79
2024/01/19 02:47:36;;;;;;;4.22;3.90;;;13.10;59.90;;;;;;4993696;28;20077;-79
2024/01/19 02:50:02;;;;;;;3.50;3.30;;;13.00;59.80;;;;;;5027764;28;20045;-79
2024/01/19 02:52:27;;;;;;;4.30;3.90;;;13.00;59.80;;;;;;5023503;28;20049;-79
2024/01/19 02:54:53;;;;;;;5.07;4.68;;;13.00;59.80;;;;;;5025729;28;20554;-79
2024/01/19 02:57:19;;;;;;;4.13;3.83;;;13.00;59.80;;;;;;5021442;28;20049;-79
2024/01/19 02:59:44;;;;;;;4.20;3.92;;;13.00;59.70;;;;;;5024699;28;20446;-79
2024/01/19 03:02:10;;;;;;;4.60;4.20;;;13.00;59.80;;;;;;5026179;28;20029;-79
2024/01/19 03:04:36;;;;;;;3.97;3.67;;;13.00;59.80;;;;;;5014302;28;20158;-79
2024/01/19 03:07:01;;;;;;;4.32;4.03;;;13.00;59.80;;;;;;5026095;28;20434;-79
2024/01/19 03:09:27;;;;;;;4.00;3.80;;;13.00;59.70;;;;;;5022296;28;20120;-79
2024/01/19 03:11:52;;;;;;;3.53;3.33;;;13.00;60.00;;;;;;5024157;28;20052;-79
2024/01/19 03:14:18;;;;;;;3.85;3.55;;;13.00;59.70;;;;;;5026107;28;20139;-79
2024/01/19 03:16:43;;;;;;;3.58;3.38;;;13.00;60.00;;;;;;5007143;28;20056;-79
2024/01/19 03:19:09;;;;;;;3.85;3.65;;;13.00;59.90;;;;;;4990666;28;20045;-79
2024/01/19 03:21:35;;;;;;;3.90;3.65;;;12.90;59.80;;;;;;5039401;28;20084;-79
2024/01/19 03:24:00;;;;;;;4.07;3.78;;;13.00;59.80;;;;;;4994413;28;20507;-79
2024/01/19 03:26:26;;;;;;;4.07;3.78;;;13.00;59.90;;;;;;5009466;28;20503;-79
2024/01/19 03:28:51;;;;;;;3.67;3.47;;;12.90;59.60;;;;;;5023127;28;20566;-79
2024/01/19 03:31:17;;;;;;;3.90;3.70;;;12.90;59.80;;;;;;5004446;28;20056;-79
2024/01/19 03:33:43;;;;;;;4.15;3.85;;;12.90;59.80;;;;;;4990137;28;20129;-78
2024/01/19 03:36:08;;;;;;;3.88;3.58;;;13.00;59.70;;;;;;5021456;28;20423;-79
2024/01/19 03:38:34;;;;;;;3.90;3.70;;;12.90;59.90;;;;;;4988936;28;20085;-79
2024/01/19 03:41:00;;;;;;;3.78;3.50;;;12.90;59.80;;;;;;5019138;28;20063;-79
2024/01/19 03:43:26;;;;;;;3.58;3.38;;;12.90;59.70;;;;;;5023231;28;20091;-79
2024/01/19 03:45:52;;;;;;;3.72;3.53;;;12.90;59.60;;;;;;5023000;28;20411;-79
2024/01/19 03:48:18;;;;;;;3.63;3.42;;;12.90;59.90;;;;;;4991538;28;20045;-79
2024/01/19 03:50:43;;;;;;;3.55;3.35;;;12.90;59.70;;;;;;5005926;28;20109;-79
2024/01/19 03:53:10;;;;;;;4.07;3.78;;;12.90;59.70;;;;;;5027572;28;20627;-79
2024/01/19 03:55:36;;;;;;;4.00;3.70;;;12.90;59.70;;;;;;5025428;28;20404;-79
2024/01/19 03:58:01;;;;;;;3.67;3.47;;;12.90;59.80;;;;;;5026967;28;20052;-79
2024/01/19 04:00:27;;;;;;;3.72;3.50;;;12.90;59.70;;;;;;5024630;28;20443;-78
2024/01/19 04:02:52;;;;;;;3.55;3.35;;;12.90;59.70;;;;;;5007913;28;20041;-79
2024/01/19 04:05:18;;;;;;;3.67;3.40;;;12.90;59.60;;;;;;5025293;28;20033;-79
2024/01/19 04:07:44;;;;;;;3.78;3.58;;;12.90;59.70;;;;;;5020932;28;20109;-79
2024/01/19 04:10:09;;;;;;;3.97;3.72;;;12.90;59.70;;;;;;5025463;28;20096;-79
2024/01/19 04:12:35;;;;;;;3.75;3.55;;;12.90;59.70;;;;;;4992566;28;20045;-79
2024/01/19 04:15:00;;;;;;;3.70;3.50;;;12.90;59.70;;;;;;5022588;28;20447;-79
2024/01/19 04:17:26;;;;;;;3.58;3.38;;;12.90;59.70;;;;;;5056394;28;20446;-79
2024/01/19 04:19:51;;;;;;;4.30;4.00;;;12.90;59.70;;;;;;5022928;28;20095;-79
2024/01/19 04:22:17;;;;;;;4.38;4.07;;;12.90;59.70;;;;;;5006895;28;20050;-79
2024/01/19 04:24:43;;;;;;;3.92;3.63;;;12.90;59.70;;;;;;4976320;28;20493;-79
2024/01/19 04:27:09;;;;;;;3.60;3.30;;;12.80;59.70;;;;;;5021318;28;20137;-79
2024/01/19 04:29:34;;;;;;;3.70;3.50;;;12.80;59.70;;;;;;5025108;28;20204;-79
2024/01/19 04:32:00;;;;;;;4.35;4.05;;;12.90;59.90;;;;;;5025592;28;20531;-79
2024/01/19 04:34:25;;;;;;;3.97;3.70;;;12.80;59.70;;;;;;5021175;28;20422;-79
2024/01/19 04:36:51;;;;;;;3.80;3.60;;;12.90;59.60;;;;;;5024766;28;20049;-79
2024/01/19 04:39:16;;;;;;;3.88;3.60;;;12.90;59.60;;;;;;5024815;28;20041;-79
2024/01/19 04:41:42;;;;;;;3.78;3.58;;;12.80;59.50;;;;;;5019619;28;20526;-79
2024/01/19 04:44:08;;;;;;;3.70;3.40;;;12.80;59.70;;;;;;5026136;28;20041;-79
2024/01/19 04:46:33;;;;;;;4.22;3.90;;;12.80;59.60;;;;;;5019504;28;20064;-79
2024/01/19 04:48:59;;;;;;;3.53;3.33;;;12.80;59.60;;;;;;5021805;28;20049;-79
2024/01/19 04:51:24;;;;;;;3.30;3.10;;;12.80;59.60;;;;;;5021902;28;20041;-78
2024/01/19 04:53:50;;;;;;;3.15;2.95;;;12.80;59.60;;;;;;4992994;28;20049;-79
2024/01/19 04:56:15;;;;;;;3.58;3.30;;;12.80;59.60;;;;;;5023698;28;20458;-79
2024/01/19 04:58:41;;;;;;;3.75;3.55;;;12.80;59.60;;;;;;5025148;28;20411;-79
2024/01/19 05:01:06;;;;;;;3.83;3.63;;;12.80;59.50;;;;;;5007525;28;20069;-79
2024/01/19 05:03:32;;;;;;;3.70;3.47;;;12.80;59.70;;;;;;5005333;28;20060;-79
2024/01/19 05:05:57;;;;;;;3.20;3.00;;;12.80;59.70;;;;;;5021748;28;20048;-79
2024/01/19 05:08:23;;;;;;;3.90;3.70;;;12.80;59.60;;;;;;5016140;28;20042;-79
2024/01/19 05:10:49;;;;;;;3.45;3.25;;;12.80;59.50;;;;;;4991241;28;20522;-79
2024/01/19 05:13:14;;;;;;;3.15;2.95;;;12.80;59.70;;;;;;5020611;28;20521;-79
2024/01/19 05:15:42;;;;;;;3.05;2.85;;;12.80;59.60;;;;;;5021921;28;20499;-79
2024/01/19 05:18:07;;;;;;;3.22;3.03;;;12.80;59.60;;;;;;5021666;28;20060;-79
2024/01/19 05:20:33;;;;;;;3.10;2.90;;;12.80;59.50;;;;;;5024001;28;20121;-79
2024/01/19 05:22:58;;;;;;;3.58;3.28;;;12.80;59.50;;;;;;5008579;28;20103;-79
2024/01/19 05:25:24;;;;;;;3.72;3.53;;;12.80;59.60;;;;;;5022947;28;20045;-79
2024/01/19 05:27:53;;;;;;;3.58;3.38;;;12.80;59.60;;;;;;4989460;28;20096;-79
2024/01/19 05:30:23;;;;;;;2.95;2.75;;;12.80;59.60;;;;;;5005944;28;20526;-79
2024/01/19 05:32:49;;;;;;;3.70;3.50;;;12.80;59.70;;;;;;5020951;28;20388;-79
2024/01/19 05:35:14;;;;;;;3.50;3.30;;;12.80;59.60;;;;;;5024926;28;20571;-79
2024/01/19 05:37:40;;;;;;;3.28;3.08;;;12.80;59.70;;;;;;5019852;28;20045;-79
2024/01/19 05:40:06;;;;;;;3.65;3.45;;;12.80;59.50;;;;;;5021959;28;20059;-79
2024/01/19 05:42:32;;;;;;;3.80;3.55;;;12.70;59.70;;;;;;4979683;28;20443;-79
2024/01/19 05:44:57;;;;;;;3.63;3.42;;;12.80;59.50;;;;;;5019205;28;20056;-79
2024/01/19 05:47:23;;;;;;;3.90;3.70;;;12.80;59.50;;;;;;5000092;28;20178;-79
2024/01/19 05:49:49;;;;;;;3.60;3.40;;;12.80;59.50;;;;;;4998672;28;20045;-79
2024/01/19 05:52:14;;;;;;;3.20;3.00;;;12.80;59.50;;;;;;5000789;28;20060;-79
2024/01/19 05:54:40;;;;;;;3.70;3.40;;;12.80;59.50;;;;;;5002576;28;20040;-79
2024/01/19 05:57:05;;;;;;;3.13;2.92;;;12.80;60.20;;;;;;5022799;28;20045;-79
2024/01/19 05:59:32;;;;;;;3.30;3.10;;;12.70;59.50;;;;;;5006370;28;20062;-79
2024/01/19 06:01:58;;;;;;;3.38;3.17;;;12.80;59.60;;;;;;5022734;28;20551;-79
2024/01/19 06:04:24;;;;;;;3.30;3.10;;;12.80;59.50;;;;;;5021431;28;20061;-79
2024/01/19 06:06:49;;;;;;;3.55;3.25;;;12.70;59.50;;;;;;4995119;28;20415;-79
2024/01/19 06:09:15;;;;;;;3.78;3.58;;;12.70;59.40;;;;;;5010833;28;20133;-79
2024/01/19 06:11:40;;;;;;;3.45;3.25;;;12.70;59.50;;;;;;5005824;28;20095;-79
2024/01/19 06:14:06;;;;;;;3.45;3.25;;;12.70;59.30;;;;;;5024533;28;20555;-79
2024/01/19 06:16:31;;;;;;;3.53;3.33;;;12.70;59.40;;;;;;4985103;28;20458;-79
2024/01/19 06:19:00;;;;;;;3.95;3.65;;;12.70;59.30;;;;;;4998030;28;20124;-79
2024/01/19 06:21:25;;;;;;;3.22;3.03;;;12.70;59.30;;;;;;4986890;28;20033;-79
2024/01/19 06:23:51;;;;;;;3.22;3.03;;;12.70;59.50;;;;;;4992708;28;20042;-79
2024/01/19 06:26:16;;;;;;;3.13;2.92;;;12.70;59.40;;;;;;5016444;28;20040;-79
2024/01/19 06:28:42;;;;;;;3.17;2.97;;;12.70;59.20;;;;;;4986587;28;20113;-79
2024/01/19 06:31:10;;;;;;;3.38;3.17;;;12.70;59.50;;;;;;5005984;28;20049;-79
2024/01/19 06:33:36;;;;;;;3.80;3.50;;;12.70;59.40;;;;;;5052101;28;20048;-79
2024/01/19 06:36:06;;;;;;;3.50;3.30;;;12.70;59.40;;;;;;5008304;28;20407;-79
2024/01/19 06:38:31;;;;;;;3.53;3.22;;;12.70;59.40;;;;;;5036821;28;20058;-79
2024/01/19 06:40:57;;;;;;;3.60;3.30;;;12.70;59.50;;;;;;5057693;28;20060;-79
2024/01/19 06:43:22;;;;;;;3.30;3.10;;;12.70;59.40;;;;;;5007730;28;20047;-79
2024/01/19 06:45:48;;;;;;;3.78;3.58;;;12.70;60.10;;;;;;5006086;28;20112;-79
2024/01/19 06:48:14;;;;;;;3.97;3.67;;;12.70;59.40;;;;;;5019674;28;20512;-79
2024/01/19 06:50:39;;;;;;;4.03;3.72;;;12.70;60.00;;;;;;5003122;28;20152;-79
2024/01/19 06:53:06;;;;;;;4.30;3.70;;;12.70;59.50;;;;;;4992665;28;20037;-79
2024/01/19 06:55:32;;;;;;;3.50;3.20;;;12.60;59.40;;;;;;5022645;28;20059;-79
2024/01/19 06:57:57;;;;;;;3.45;3.25;;;12.60;59.40;;;;;;4988840;28;20487;-80
2024/01/19 07:00:23;;;;;;;3.50;3.30;;;12.70;59.40;;;;;;5006804;28;20049;-79
2024/01/19 07:02:49;;;;;;;4.00;3.70;;;12.70;60.10;;;;;;4975786;28;20053;-79
2024/01/19 07:05:15;;;;;;;3.33;3.13;;;12.70;60.10;;;;;;5003210;28;20440;-79
2024/01/19 07:07:40;;;;;;;3.45;3.25;;;12.70;59.30;;;;;;5058394;28;20057;-79
2024/01/19 07:10:06;;;;;;;3.65;3.45;;;12.60;59.40;;;;;;5022875;28;20029;-79
2024/01/19 07:12:33;;;;;;;3.58;3.30;;;12.70;59.30;;;;;;5009787;28;20041;-79
2024/01/19 07:14:58;;;;;;;3.60;3.30;;;12.60;59.20;;;;;;5008149;28;20480;-79
2024/01/19 07:17:24;;;;;;;3.58;3.38;;;12.60;59.30;;;;;;5026899;28;20124;-79
2024/01/19 07:19:49;;;;;;;3.75;3.45;;;12.60;59.40;;;;;;5025750;28;20072;-79
2024/01/19 07:22:15;;;;;;;3.97;3.67;;;12.60;59.40;;;;;;5009480;28;20038;-79
2024/01/19 07:24:40;;;;;;;3.83;3.55;;;12.60;59.30;;;;;;5020816;28;20061;-79
2024/01/19 07:27:06;;;;;;;4.05;3.85;;;12.60;59.30;;;;;;5005248;28;20096;-79
2024/01/19 07:29:31;;;;;;;3.97;3.67;;;12.60;59.50;;;;;;5006367;28;20041;-79
2024/01/19 07:31:57;;;;;;;3.97;3.78;;;12.60;59.30;;;;;;5001099;28;20049;-79
2024/01/19 07:34:23;;;;;;;3.88;3.67;;;12.60;59.40;;;;;;5058118;28;20068;-79
2024/01/19 07:36:49;;;;;;;3.80;3.55;;;12.60;59.30;;;;;;4991417;28;20111;-79
2024/01/19 07:39:15;;;;;;;3.30;3.10;;;12.60;59.50;;;;;;5022527;28;20515;-78
2024/01/19 07:41:43;;;;;;;3.78;3.58;;;12.60;59.60;;;;;;5022817;28;20038;-78
2024/01/19 07:44:08;;;;;;;3.95;3.65;;;12.60;59.40;;;;;;5028254;28;20045;-79
2024/01/19 07:46:35;;;;;;;3.90;3.60;;;12.60;59.20;;;;;;5008758;28;20041;-79
2024/01/19 07:49:01;;;;;;;3.88;3.60;;;12.60;59.30;;;;;;5018647;28;20041;-79
2024/01/19 07:51:27;;;;;;;3.85;3.65;;;12.60;59.40;;;;;;4993278;28;20483;-79
2024/01/19 07:53:54;;;;;;;3.50;3.20;;;12.60;59.40;;;;;;5023259;28;20053;-78
2024/01/19 07:56:20;;;;;;;3.88;3.65;;;12.60;59.30;;;;;;5025633;28;20045;-79
2024/01/19 07:58:45;;;;;;;4.28;3.97;;;12.60;59.40;;;;;;5024971;28;20462;-79
2024/01/19 08:01:11;;;;;;;3.17;2.97;;;12.60;59.40;;;;;;4994760;28;20132;-79
2024/01/19 08:03:38;;;;;;;3.83;3.53;;;12.60;59.20;;;;;;5024381;28;20042;-79
2024/01/19 08:06:04;;;;;;;3.33;3.13;;;12.60;59.30;;;;;;5022657;28;20057;-79
2024/01/19 08:08:30;;;;;;;4.45;4.15;;;12.60;59.20;;;;;;5024432;28;20051;-79
2024/01/19 08:10:55;;;;;;;4.10;3.80;;;12.60;59.20;;;;;;5009795;28;20033;-79
2024/01/19 08:13:21;;;;;;;4.20;3.90;;;12.60;59.40;;;;;;5032329;28;20107;-79
2024/01/19 08:15:46;;;;;;;3.83;3.53;;;12.60;59.30;;;;;;5011656;28;20076;-79
2024/01/19 08:18:12;;;;;;;3.70;3.50;;;12.50;59.10;;;;;;5040553;28;20103;-79
2024/01/19 08:20:37;;;;;;;4.30;4.00;;;12.60;59.20;;;;;;5031884;28;20097;-79
2024/01/19 08:23:03;;;;;;;4.25;3.95;;;12.50;59.20;;;;;;5024780;28;20045;-80
2024/01/19 08:25:28;;;;;;;4.47;4.18;;;12.60;59.30;;;;;;5021517;28;20482;-80
2024/01/19 08:27:55;;;;;;;3.70;3.47;;;12.50;59.10;;;;;;5007248;28;20094;-79
2024/01/19 08:30:21;;;;;;;4.15;3.85;;;12.50;59.30;;;;;;4987620;28;20423;-79
2024/01/19 08:32:46;;;;;;;4.00;3.70;;;12.50;59.30;;;;;;5003789;28;20133;-79
2024/01/19 08:35:12;;;;;;;3.42;3.22;;;12.50;59.20;;;;;;5024775;28;20136;-79
2024/01/19 08:37:38;;;;;;;3.45;3.25;;;12.50;59.30;;;;;;5022543;28;20088;-79
2024/01/19 08:40:11;;;;;;;3.70;3.50;;;12.50;59.20;;;;;;5020980;28;20133;-80
2024/01/19 08:42:37;;;;;;;3.78;3.47;;;12.60;59.30;;;;;;4991888;28;20388;-80
2024/01/19 08:45:03;;;;;;;3.95;3.75;;;12.60;59.20;;;;;;5022572;28;20052;-79
2024/01/19 08:47:29;;;;;;;3.70;3.50;;;12.50;59.10;;;;;;4999076;28;20398;-80
2024/01/19 08:49:54;;;;;;;3.65;3.42;;;12.50;59.10;;;;;;5026234;28;20071;-79
2024/01/19 08:52:20;;;;;;;4.45;4.15;;;12.50;59.20;;;;;;5020503;28;20117;-80
2024/01/19 08:54:46;;;;;;;4.03;3.72;;;12.50;59.10;;;;;;4996776;28;20057;-79
2024/01/19 08:57:11;;;;;;;3.80;3.60;;;12.50;59.20;;;;;;5023283;28;20064;-79
2024/01/19 08:59:37;;;;;;;4.05;3.85;;;12.50;59.10;;;;;;5021596;28;20036;-79
2024/01/19 09:02:03;;;;;;;3.45;3.25;;;12.50;59.10;;;;;;5025346;28;20033;-79
2024/01/19 09:04:28;;;;;;;4.10;3.80;;;12.50;59.10;;;;;;5016754;28;20440;-79
2024/01/19 09:06:57;;;;;;;4.13;3.83;;;12.60;59.20;;;;;;5017955;28;20574;-78
2024/01/19 09:09:23;;;;;;;4.50;4.20;;;12.60;59.30;;;;;;5022673;28;20042;-79
2024/01/19 09:11:49;;;;;;;4.18;3.88;;;12.60;59.10;;;;;;5019636;28;20046;-79
2024/01/19 09:14:15;;;;;;;3.45;3.25;;;12.50;59.10;;;;;;5009110;28;20034;-80
2024/01/19 09:16:44;;;;;;;3.92;3.63;;;12.60;59.20;;;;;;5022748;28;20033;-79
2024/01/19 09:19:09;;;;;;;4.55;4.15;;;12.60;59.10;;;;;;5019845;28;20041;-79
2024/01/19 09:21:35;;;;;;;4.30;4.10;;;12.60;59.80;;;;;;5005228;28;20570;-79
2024/01/19 09:24:01;;;;;;;3.53;3.33;;;12.60;59.00;;;;;;5019450;28;20033;-79
2024/01/19 09:26:27;;;;;;;3.70;3.50;;;12.60;59.00;;;;;;5022026;28;20518;-79
2024/01/19 09:28:52;;;;;;;3.72;3.42;;;12.60;59.10;;;;;;5023427;28;20041;-78
2024/01/19 09:31:18;;;;;;;4.43;4.07;;;12.60;59.20;;;;;;5021541;28;20423;-79
2024/01/19 09:33:44;;;;;;;3.47;3.28;;;12.60;59.50;;;;;;5020772;28;20124;-79
2024/01/19 09:36:10;;;;;;;3.58;3.38;;;12.60;59.20;;;;;;5024215;28;20036;-78
2024/01/19 09:38:37;;;;;;;4.00;3.80;;;12.60;59.20;;;;;;5021470;28;20041;-79
2024/01/19 09:41:43;;;;;;;3.70;3.40;;;12.60;59.90;;;;;;5024184;28;20046;-79
2024/01/19 09:44:10;;;;;;;3.35;3.15;;;12.60;59.20;;;;;;4946320;29;20047;-79
2024/01/19 09:46:56;;;;;;;3.22;3.03;;;12.60;59.00;;;;;;4927250;29;20074;-78
2024/01/19 09:49:24;;;;;;;4.40;4.10;;;12.60;59.20;;;;;;4932490;29;20047;-79
2024/01/19 09:52:00;;;;;;;3.85;3.55;;;12.70;59.20;;;;;;4928120;29;20051;-78
2024/01/19 09:54:32;;;;;;;3.58;3.38;;;12.70;59.20;;;;;;4925378;29;20032;-79
2024/01/19 09:57:01;;;;;;;3.25;3.05;;;12.70;59.10;;;;;;4929028;29;20031;-79
2024/01/19 09:59:31;;;;;;;3.45;3.25;;;12.70;59.20;;;;;;4926115;29;20569;-79
2024/01/19 10:01:57;;;;;;;3.67;3.47;;;12.70;59.20;;;;;;4945665;29;20050;-78
2024/01/19 10:04:22;;;;;;;3.55;3.35;;;12.70;59.20;;;;;;4939182;29;20055;-79
2024/01/19 10:06:49;;;;;;;3.42;3.22;;;12.70;59.40;;;;;;4943155;28;20079;-79
2024/01/19 10:09:14;;;;;;;3.88;3.67;;;12.80;59.10;;;;;;4913137;29;20047;-78
2024/01/19 10:11:41;;;;;;;3.83;3.63;;;12.80;59.40;;;;;;4943230;29;20518;-79
2024/01/19 10:14:07;;;;;;;3.65;3.30;;;12.80;59.40;;;;;;4941683;28;20041;-79
2024/01/19 10:16:34;;;;;;;3.22;3.03;;;12.80;59.30;;;;;;5008440;28;20132;-79
2024/01/19 10:19:01;;;;;;;3.25;3.00;;;12.80;59.60;;;;;;4991279;28;20041;-79
2024/01/19 10:21:27;;;;;;;3.35;3.15;;;12.80;59.40;;;;;;5020916;28;20068;-79
2024/01/19 10:24:15;;;;;;;3.40;3.20;;;12.80;59.20;;;;;;5054754;28;20045;-78
2024/01/19 10:26:42;;;;;;;3.50;3.30;;;12.80;59.30;;;;;;5051184;28;20058;-79
2024/01/19 10:29:14;;;;;;;3.60;3.40;;;12.80;59.30;;;;;;5023415;28;20119;-79
2024/01/19 10:31:41;;;;;;;3.33;3.00;;;12.80;59.30;;;;;;4988439;28;20045;-79
2024/01/19 10:34:24;;;;;;;3.45;3.25;;;12.80;59.20;;;;;;5019538;28;20107;-79
2024/01/19 10:36:50;;;;;;;3.28;3.08;;;12.90;59.40;;;;;;5019802;28;20755;-80
2024/01/19 10:39:17;;;;;;;3.50;3.30;;;12.90;59.40;;;;;;5006928;28;20533;-79
2024/01/19 10:41:43;;;;;;;3.65;3.35;;;12.90;59.70;;;;;;5027131;28;20420;-79
2024/01/19 10:44:16;;;;;;;4.03;3.72;;;12.90;59.90;;;;;;5061369;28;20589;-79
2024/01/19 10:46:42;;;;;;;3.50;3.30;;;12.90;59.50;;;;;;5025644;28;20133;-79
2024/01/19 10:49:08;;;;;;;3.00;2.80;;;12.90;59.60;;;;;;5022380;28;20041;-79
2024/01/19 10:51:39;;;;;;;2.83;2.63;;;12.90;59.70;;;;;;5022934;28;20033;-79
2024/01/19 10:54:05;;;;;;;3.17;2.97;;;12.90;59.60;;;;;;4994105;28;20115;-79
2024/01/19 10:56:30;;;;;;;3.03;2.83;;;12.90;59.90;;;;;;4990064;28;20069;-79
2024/01/19 10:59:09;;;;;;;3.28;3.08;;;13.00;59.10;;;;;;5025226;28;20033;-79
2024/01/19 11:01:35;;;;;;;2.65;2.50;;;12.90;59.80;;;;;;5055258;28;20037;-79
2024/01/19 11:04:00;;;;;;;2.95;2.75;;;12.90;59.90;;;;;;5009522;28;20152;-78
2024/01/19 11:06:27;;;;;;;2.53;2.42;;;13.00;59.80;;;;;;4994720;28;20388;-79
2024/01/19 11:08:52;;;;;;;2.88;2.78;;;13.00;59.70;;;;;;5051917;28;20125;-78
2024/01/19 11:11:18;;;;;;;2.90;2.70;;;13.00;59.90;;;;;;5058184;28;20187;-79
2024/01/19 11:13:43;;;;;;;2.67;2.47;;;13.00;59.80;;;;;;5009893;28;20056;-79
2024/01/19 11:16:14;;;;;;;2.70;2.50;;;13.00;59.40;;;;;;5007816;28;20139;-79
2024/01/19 11:18:39;;;;;;;2.78;2.55;;;13.00;59.80;;;;;;5025797;28;20051;-79
2024/01/19 11:21:06;;;;;;;2.70;2.50;;;13.00;60.00;;;;;;5010034;28;20046;-78
2024/01/19 11:23:32;;;;;;;3.05;2.85;;;13.00;59.90;;;;;;5008984;28;20054;-79
2024/01/19 11:26:12;;;;;;;2.70;2.50;;;13.00;59.70;;;;;;5011019;28;20042;-79
2024/01/19 11:28:44;;;;;;;2.45;2.35;;;13.00;60.40;;;;;;5043241;28;20037;-79
2024/01/19 11:31:20;;;;;;;2.90;2.70;;;13.00;60.40;;;;;;5021883;28;20434;-79
2024/01/19 11:33:45;;;;;;;2.85;2.65;;;13.10;60.40;;;;;;5058753;28;20047;-79
2024/01/19 11:36:11;;;;;;;2.20;2.10;;;13.10;60.10;;;;;;5008178;28;20058;-79
2024/01/19 11:38:46;;;;;;;2.35;2.22;;;13.10;59.60;;;;;;4991244;28;20037;-80
2024/01/19 11:41:33;;;;;;;2.70;2.60;;;13.10;60.10;;;;;;5025489;28;20064;-79
2024/01/19 11:44:06;;;;;;;2.40;2.30;;;13.10;59.70;;;;;;5026685;28;20047;-79
2024/01/19 11:46:44;;;;;;;2.60;2.40;;;13.20;59.40;;;;;;5007325;28;20030;-79
2024/01/19 11:49:35;;;;;;;3.53;2.35;;;13.20;60.50;;;;;;5035366;28;20419;-79
2024/01/19 11:52:01;;;;;;;2.90;2.80;;;13.20;60.00;;;;;;5022430;28;20034;-78
2024/01/19 11:54:32;;;;;;;2.58;2.40;;;13.20;59.20;;;;;;5023937;28;20034;-79
2024/01/19 11:57:16;;;;;;;2.40;2.22;;;13.20;59.10;;;;;;5009195;28;20117;-79
2024/01/19 11:59:42;;;;;;;;;;;13.20;59.00;;;;;;5042233;28;20046;-79
2024/01/19 12:02:07;;;;;;;2.67;2.47;;;13.20;58.80;;;;;;5024573;28;19924;-79
2024/01/19 12:04:34;;;;;;;2.40;2.30;;;13.20;58.90;;;;;;4992473;28;20576;-79
2024/01/19 12:07:03;;;;;;;2.70;2.50;;;13.30;58.70;;;;;;5018689;28;20049;-79
2024/01/19 12:09:29;;;;;;;2.17;2.08;;;13.30;58.40;;;;;;5055529;28;20518;-79
2024/01/19 12:11:58;;;;;;;2.75;2.65;;;13.30;58.90;;;;;;5056329;28;20192;-80
2024/01/19 12:14:23;;;;;;;2.50;2.40;;;13.30;58.70;;;;;;5024776;28;20044;-79
2024/01/19 12:16:49;;;;;;;2.67;2.47;;;13.30;58.40;;;;;;5024875;28;20030;-79
2024/01/19 12:19:15;;;;;;;2.40;2.30;;;13.30;58.60;;;;;;5008400;28;20172;-79
2024/01/19 12:21:40;;;;;;;2.25;2.15;;;13.30;58.50;;;;;;5057925;28;20128;-79
2024/01/19 12:24:07;;;;;;;2.70;2.55;;;13.40;58.30;;;;;;5021168;28;20534;-79
2024/01/19 12:26:33;;;;;;;2.50;2.30;;;13.30;58.60;;;;;;5021827;28;20053;-80
2024/01/19 12:28:59;;;;;;;2.20;2.10;;;13.40;58.30;;;;;;5025383;28;20576;-78
2024/01/19 12:31:30;;;;;;;2.40;2.30;;;13.40;58.30;;;;;;5024691;28;20053;-79
2024/01/19 12:33:56;;;;;;;2.17;2.08;;;13.40;58.40;;;;;;5023867;28;20112;-79
2024/01/19 12:36:24;;;;;;;2.13;2.03;;;13.40;58.30;;;;;;5004960;28;20129;-79
2024/01/19 12:39:05;;;;;;;2.40;2.30;;;13.40;58.30;;;;;;5037991;28;20573;-79
2024/01/19 12:41:31;;;;;;;2.60;2.50;;;13.40;58.40;;;;;;5035308;28;20072;-79
2024/01/19 12:43:59;;;;;;;2.50;2.40;;;13.40;58.30;;;;;;5026669;28;20069;-79